sensor_id;sensor_type;location;lat;lon;timestamp;P1;durP1;ratioP1;P2;durP2;ratioP2
9597;SDS011;4837;50.890;4.724;2022-12-24T00:00:22;28.17;;;5.00;;
9597;SDS011;4837;50.890;4.724;2022-12-24T00:02:49;20.50;;;5.27;;
9597;SDS011;4837;50.890;4.724;2022-12-24T00:05:15;28.20;;;5.13;;
9597;SDS011;4837;50.890;4.724;2022-12-24T00:07:41;26.57;;;4.83;;
9597;SDS011;4837;50.890;4.724;2022-12-24T00:10:08;18.70;;;4.83;;
9597;SDS011;4837;50.890;4.724;2022-12-24T00:12:34;24.57;;;5.27;;
9597;SDS011;4837;50.890;4.724;2022-12-24T00:15:01;20.73;;;5.40;;
9597;SDS011;4837;50.890;4.724;2022-12-24T00:17:27;24.00;;;5.07;;
9597;SDS011;4837;50.890;4.724;2022-12-24T00:19:53;21.50;;;5.00;;
9597;SDS011;4837;50.890;4.724;2022-12-24T00:22:19;24.10;;;4.80;;
9597;SDS011;4837;50.890;4.724;2022-12-24T00:24:45;26.17;;;4.97;;
9597;SDS011;4837;50.890;4.724;2022-12-24T00:27:11;22.80;;;5.10;;
9597;SDS011;4837;50.890;4.724;2022-12-24T00:29:38;23.43;;;4.23;;
9597;SDS011;4837;50.890;4.724;2022-12-24T00:32:04;26.37;;;4.83;;
9597;SDS011;4837;50.890;4.724;2022-12-24T00:34:34;21.97;;;5.27;;
9597;SDS011;4837;50.890;4.724;2022-12-24T00:37:00;24.00;;;5.03;;
9597;SDS011;4837;50.890;4.724;2022-12-24T00:39:26;26.20;;;5.27;;
9597;SDS011;4837;50.890;4.724;2022-12-24T00:41:53;26.77;;;5.00;;
9597;SDS011;4837;50.890;4.724;2022-12-24T00:44:19;19.03;;;4.50;;
9597;SDS011;4837;50.890;4.724;2022-12-24T00:46:45;24.63;;;5.80;;
9597;SDS011;4837;50.890;4.724;2022-12-24T00:49:11;19.10;;;4.17;;
9597;SDS011;4837;50.890;4.724;2022-12-24T00:51:38;26.90;;;5.57;;
9597;SDS011;4837;50.890;4.724;2022-12-24T00:54:04;26.57;;;5.40;;
9597;SDS011;4837;50.890;4.724;2022-12-24T00:56:30;28.67;;;5.20;;
9597;SDS011;4837;50.890;4.724;2022-12-24T00:58:57;18.93;;;4.70;;
9597;SDS011;4837;50.890;4.724;2022-12-24T01:01:23;27.53;;;5.40;;
9597;SDS011;4837;50.890;4.724;2022-12-24T01:03:50;22.57;;;5.10;;
9597;SDS011;4837;50.890;4.724;2022-12-24T01:06:17;25.13;;;4.80;;
9597;SDS011;4837;50.890;4.724;2022-12-24T01:08:43;21.40;;;5.03;;
9597;SDS011;4837;50.890;4.724;2022-12-24T01:11:10;21.73;;;4.77;;
9597;SDS011;4837;50.890;4.724;2022-12-24T01:13:36;23.70;;;4.50;;
9597;SDS011;4837;50.890;4.724;2022-12-24T01:16:03;25.37;;;5.90;;
9597;SDS011;4837;50.890;4.724;2022-12-24T01:18:29;23.63;;;5.27;;
9597;SDS011;4837;50.890;4.724;2022-12-24T01:20:56;24.23;;;4.57;;
9597;SDS011;4837;50.890;4.724;2022-12-24T01:23:22;22.63;;;5.50;;
9597;SDS011;4837;50.890;4.724;2022-12-24T01:25:48;24.97;;;5.07;;
9597;SDS011;4837;50.890;4.724;2022-12-24T01:28:15;30.70;;;5.77;;
9597;SDS011;4837;50.890;4.724;2022-12-24T01:30:41;25.70;;;4.17;;
9597;SDS011;4837;50.890;4.724;2022-12-24T01:33:07;23.93;;;4.17;;
9597;SDS011;4837;50.890;4.724;2022-12-24T01:35:33;24.23;;;4.63;;
9597;SDS011;4837;50.890;4.724;2022-12-24T01:37:59;24.27;;;4.60;;
9597;SDS011;4837;50.890;4.724;2022-12-24T01:40:26;19.87;;;4.03;;
9597;SDS011;4837;50.890;4.724;2022-12-24T01:43:15;20.50;;;4.27;;
9597;SDS011;4837;50.890;4.724;2022-12-24T01:45:54;18.90;;;4.30;;
9597;SDS011;4837;50.890;4.724;2022-12-24T01:48:41;22.47;;;4.03;;
9597;SDS011;4837;50.890;4.724;2022-12-24T01:53:41;19.47;;;3.57;;
9597;SDS011;4837;50.890;4.724;2022-12-24T01:56:08;14.77;;;3.27;;
9597;SDS011;4837;50.890;4.724;2022-12-24T01:58:35;16.00;;;3.00;;
9597;SDS011;4837;50.890;4.724;2022-12-24T02:01:02;12.77;;;3.27;;
9597;SDS011;4837;50.890;4.724;2022-12-24T02:03:28;14.47;;;3.20;;
9597;SDS011;4837;50.890;4.724;2022-12-24T02:05:54;10.93;;;2.67;;
9597;SDS011;4837;50.890;4.724;2022-12-24T02:08:22;9.13;;;2.50;;
9597;SDS011;4837;50.890;4.724;2022-12-24T02:10:48;10.23;;;2.97;;
9597;SDS011;4837;50.890;4.724;2022-12-24T02:13:15;14.87;;;3.27;;
9597;SDS011;4837;50.890;4.724;2022-12-24T02:31:16;17.63;;;4.20;;
9597;SDS011;4837;50.890;4.724;2022-12-24T02:33:56;21.90;;;4.67;;
9597;SDS011;4837;50.890;4.724;2022-12-24T02:36:27;19.40;;;4.30;;
9597;SDS011;4837;50.890;4.724;2022-12-24T02:39:01;23.67;;;4.60;;
9597;SDS011;4837;50.890;4.724;2022-12-24T02:41:29;18.37;;;5.10;;
9597;SDS011;4837;50.890;4.724;2022-12-24T02:44:16;21.13;;;4.33;;
9597;SDS011;4837;50.890;4.724;2022-12-24T02:46:43;23.30;;;5.23;;
9597;SDS011;4837;50.890;4.724;2022-12-24T02:49:11;19.40;;;5.00;;
9597;SDS011;4837;50.890;4.724;2022-12-24T02:51:38;26.90;;;4.70;;
9597;SDS011;4837;50.890;4.724;2022-12-24T02:54:04;23.40;;;5.17;;
9597;SDS011;4837;50.890;4.724;2022-12-24T03:05:03;21.87;;;4.60;;
9597;SDS011;4837;50.890;4.724;2022-12-24T03:12:42;17.77;;;4.17;;
9597;SDS011;4837;50.890;4.724;2022-12-24T03:15:10;18.75;;;4.32;;
9597;SDS011;4837;50.890;4.724;2022-12-24T03:17:39;15.27;;;3.78;;
9597;SDS011;4837;50.890;4.724;2022-12-24T03:20:08;16.17;;;4.17;;
9597;SDS011;4837;50.890;4.724;2022-12-24T03:22:35;19.00;;;3.70;;
9597;SDS011;4837;50.890;4.724;2022-12-24T03:25:01;15.53;;;3.83;;
9597;SDS011;4837;50.890;4.724;2022-12-24T03:27:28;13.47;;;3.93;;
9597;SDS011;4837;50.890;4.724;2022-12-24T03:29:54;13.90;;;3.77;;
9597;SDS011;4837;50.890;4.724;2022-12-24T03:32:26;17.43;;;4.10;;
9597;SDS011;4837;50.890;4.724;2022-12-24T03:34:53;18.10;;;4.23;;
9597;SDS011;4837;50.890;4.724;2022-12-24T03:37:19;18.57;;;4.30;;
9597;SDS011;4837;50.890;4.724;2022-12-24T03:39:45;16.67;;;4.10;;
9597;SDS011;4837;50.890;4.724;2022-12-24T03:42:11;17.57;;;4.20;;
9597;SDS011;4837;50.890;4.724;2022-12-24T03:44:37;18.73;;;3.83;;
9597;SDS011;4837;50.890;4.724;2022-12-24T03:47:04;14.53;;;3.90;;
9597;SDS011;4837;50.890;4.724;2022-12-24T03:49:30;21.03;;;4.50;;
9597;SDS011;4837;50.890;4.724;2022-12-24T03:51:57;24.77;;;5.30;;
9597;SDS011;4837;50.890;4.724;2022-12-24T03:54:23;18.30;;;4.47;;
9597;SDS011;4837;50.890;4.724;2022-12-24T03:56:49;20.23;;;5.53;;
9597;SDS011;4837;50.890;4.724;2022-12-24T03:59:15;22.00;;;4.73;;
9597;SDS011;4837;50.890;4.724;2022-12-24T04:01:41;19.33;;;4.77;;
9597;SDS011;4837;50.890;4.724;2022-12-24T04:04:07;27.63;;;5.07;;
9597;SDS011;4837;50.890;4.724;2022-12-24T04:06:33;18.37;;;5.17;;
9597;SDS011;4837;50.890;4.724;2022-12-24T04:08:59;20.97;;;5.03;;
9597;SDS011;4837;50.890;4.724;2022-12-24T04:11:29;22.70;;;4.97;;
9597;SDS011;4837;50.890;4.724;2022-12-24T04:13:55;25.43;;;4.70;;
9597;SDS011;4837;50.890;4.724;2022-12-24T04:16:21;20.17;;;4.97;;
9597;SDS011;4837;50.890;4.724;2022-12-24T04:18:47;24.00;;;5.27;;
9597;SDS011;4837;50.890;4.724;2022-12-24T04:21:14;23.27;;;5.90;;
9597;SDS011;4837;50.890;4.724;2022-12-24T04:23:40;23.63;;;4.97;;
9597;SDS011;4837;50.890;4.724;2022-12-24T04:26:07;23.73;;;4.90;;
9597;SDS011;4837;50.890;4.724;2022-12-24T04:28:33;22.80;;;5.63;;
9597;SDS011;4837;50.890;4.724;2022-12-24T04:31:00;28.67;;;6.00;;
9597;SDS011;4837;50.890;4.724;2022-12-24T04:33:26;25.40;;;5.47;;
9597;SDS011;4837;50.890;4.724;2022-12-24T04:35:52;23.73;;;4.83;;
9597;SDS011;4837;50.890;4.724;2022-12-24T04:38:18;24.23;;;5.20;;
9597;SDS011;4837;50.890;4.724;2022-12-24T04:40:45;26.27;;;5.23;;
9597;SDS011;4837;50.890;4.724;2022-12-24T04:43:11;23.20;;;4.73;;
9597;SDS011;4837;50.890;4.724;2022-12-24T04:45:37;30.80;;;5.43;;
9597;SDS011;4837;50.890;4.724;2022-12-24T04:48:03;32.87;;;5.40;;
9597;SDS011;4837;50.890;4.724;2022-12-24T04:50:29;23.50;;;5.43;;
9597;SDS011;4837;50.890;4.724;2022-12-24T04:52:55;22.77;;;5.20;;
9597;SDS011;4837;50.890;4.724;2022-12-24T04:55:21;24.27;;;5.17;;
9597;SDS011;4837;50.890;4.724;2022-12-24T04:57:47;25.20;;;5.83;;
9597;SDS011;4837;50.890;4.724;2022-12-24T05:00:13;30.37;;;5.33;;
9597;SDS011;4837;50.890;4.724;2022-12-24T05:02:40;20.27;;;4.53;;
9597;SDS011;4837;50.890;4.724;2022-12-24T05:05:06;35.43;;;5.87;;
9597;SDS011;4837;50.890;4.724;2022-12-24T05:07:32;26.73;;;5.10;;
9597;SDS011;4837;50.890;4.724;2022-12-24T05:09:59;24.40;;;5.03;;
9597;SDS011;4837;50.890;4.724;2022-12-24T05:12:25;24.53;;;5.30;;
9597;SDS011;4837;50.890;4.724;2022-12-24T05:14:51;30.23;;;5.63;;
9597;SDS011;4837;50.890;4.724;2022-12-24T05:17:17;25.90;;;4.97;;
9597;SDS011;4837;50.890;4.724;2022-12-24T05:19:43;26.17;;;5.10;;
9597;SDS011;4837;50.890;4.724;2022-12-24T05:22:09;26.53;;;4.83;;
9597;SDS011;4837;50.890;4.724;2022-12-24T05:24:53;28.63;;;5.40;;
9597;SDS011;4837;50.890;4.724;2022-12-24T05:27:38;29.73;;;4.73;;
9597;SDS011;4837;50.890;4.724;2022-12-24T05:30:04;24.67;;;5.23;;
9597;SDS011;4837;50.890;4.724;2022-12-24T05:32:31;29.70;;;4.53;;
9597;SDS011;4837;50.890;4.724;2022-12-24T05:34:57;26.70;;;5.10;;
9597;SDS011;4837;50.890;4.724;2022-12-24T05:37:23;21.80;;;5.23;;
9597;SDS011;4837;50.890;4.724;2022-12-24T05:39:49;23.37;;;5.17;;
9597;SDS011;4837;50.890;4.724;2022-12-24T05:42:15;24.23;;;5.87;;
9597;SDS011;4837;50.890;4.724;2022-12-24T05:44:41;27.73;;;5.60;;
9597;SDS011;4837;50.890;4.724;2022-12-24T05:47:07;27.13;;;5.47;;
9597;SDS011;4837;50.890;4.724;2022-12-24T05:49:33;26.20;;;5.60;;
9597;SDS011;4837;50.890;4.724;2022-12-24T05:51:59;26.00;;;6.03;;
9597;SDS011;4837;50.890;4.724;2022-12-24T05:54:26;29.97;;;5.57;;
9597;SDS011;4837;50.890;4.724;2022-12-24T05:56:52;31.03;;;5.70;;
9597;SDS011;4837;50.890;4.724;2022-12-24T05:59:18;24.33;;;5.17;;
9597;SDS011;4837;50.890;4.724;2022-12-24T06:01:44;22.20;;;5.20;;
9597;SDS011;4837;50.890;4.724;2022-12-24T06:04:12;32.97;;;5.40;;
9597;SDS011;4837;50.890;4.724;2022-12-24T06:06:39;28.80;;;5.60;;
9597;SDS011;4837;50.890;4.724;2022-12-24T06:09:05;26.40;;;5.03;;
9597;SDS011;4837;50.890;4.724;2022-12-24T06:11:32;31.27;;;5.00;;
9597;SDS011;4837;50.890;4.724;2022-12-24T06:13:58;28.27;;;5.23;;
9597;SDS011;4837;50.890;4.724;2022-12-24T06:16:24;24.17;;;5.20;;
9597;SDS011;4837;50.890;4.724;2022-12-24T06:18:51;25.00;;;5.10;;
9597;SDS011;4837;50.890;4.724;2022-12-24T06:21:17;24.77;;;5.27;;
9597;SDS011;4837;50.890;4.724;2022-12-24T06:23:44;34.80;;;5.97;;
9597;SDS011;4837;50.890;4.724;2022-12-24T06:26:11;24.73;;;5.07;;
9597;SDS011;4837;50.890;4.724;2022-12-24T06:28:38;22.33;;;4.80;;
9597;SDS011;4837;50.890;4.724;2022-12-24T06:31:05;26.57;;;5.50;;
9597;SDS011;4837;50.890;4.724;2022-12-24T06:33:31;22.83;;;5.17;;
9597;SDS011;4837;50.890;4.724;2022-12-24T06:35:59;29.60;;;5.33;;
9597;SDS011;4837;50.890;4.724;2022-12-24T06:38:25;25.87;;;5.27;;
9597;SDS011;4837;50.890;4.724;2022-12-24T06:40:51;25.27;;;5.13;;
9597;SDS011;4837;50.890;4.724;2022-12-24T06:43:19;23.40;;;4.73;;
9597;SDS011;4837;50.890;4.724;2022-12-24T06:45:46;27.73;;;5.20;;
9597;SDS011;4837;50.890;4.724;2022-12-24T06:48:12;29.23;;;5.40;;
9597;SDS011;4837;50.890;4.724;2022-12-24T06:50:39;28.30;;;5.07;;
9597;SDS011;4837;50.890;4.724;2022-12-24T06:53:05;25.87;;;4.80;;
9597;SDS011;4837;50.890;4.724;2022-12-24T06:55:31;21.30;;;5.17;;
9597;SDS011;4837;50.890;4.724;2022-12-24T06:57:57;24.07;;;5.03;;
9597;SDS011;4837;50.890;4.724;2022-12-24T07:00:23;31.40;;;5.10;;
9597;SDS011;4837;50.890;4.724;2022-12-24T07:02:49;25.27;;;5.07;;
9597;SDS011;4837;50.890;4.724;2022-12-24T07:05:16;25.23;;;5.70;;
9597;SDS011;4837;50.890;4.724;2022-12-24T07:07:43;28.20;;;5.90;;
9597;SDS011;4837;50.890;4.724;2022-12-24T07:10:10;29.67;;;5.43;;
9597;SDS011;4837;50.890;4.724;2022-12-24T07:12:37;25.47;;;5.33;;
9597;SDS011;4837;50.890;4.724;2022-12-24T07:15:04;28.87;;;5.50;;
9597;SDS011;4837;50.890;4.724;2022-12-24T07:17:30;22.83;;;4.70;;
9597;SDS011;4837;50.890;4.724;2022-12-24T07:19:56;29.97;;;6.03;;
9597;SDS011;4837;50.890;4.724;2022-12-24T07:22:22;26.07;;;5.33;;
9597;SDS011;4837;50.890;4.724;2022-12-24T07:24:48;33.77;;;7.17;;
9597;SDS011;4837;50.890;4.724;2022-12-24T07:27:14;26.60;;;5.53;;
9597;SDS011;4837;50.890;4.724;2022-12-24T07:29:41;28.57;;;5.70;;
9597;SDS011;4837;50.890;4.724;2022-12-24T07:32:07;21.17;;;5.83;;
9597;SDS011;4837;50.890;4.724;2022-12-24T07:34:33;22.73;;;5.33;;
9597;SDS011;4837;50.890;4.724;2022-12-24T07:36:59;23.07;;;5.53;;
9597;SDS011;4837;50.890;4.724;2022-12-24T07:39:26;30.33;;;6.03;;
9597;SDS011;4837;50.890;4.724;2022-12-24T07:41:52;27.73;;;6.13;;
9597;SDS011;4837;50.890;4.724;2022-12-24T07:44:18;26.10;;;5.20;;
9597;SDS011;4837;50.890;4.724;2022-12-24T07:46:44;26.90;;;5.47;;
9597;SDS011;4837;50.890;4.724;2022-12-24T07:49:10;33.40;;;6.13;;
9597;SDS011;4837;50.890;4.724;2022-12-24T07:51:36;29.57;;;5.43;;
9597;SDS011;4837;50.890;4.724;2022-12-24T07:54:03;28.40;;;5.40;;
9597;SDS011;4837;50.890;4.724;2022-12-24T07:56:32;31.03;;;6.00;;
9597;SDS011;4837;50.890;4.724;2022-12-24T07:58:58;26.03;;;5.60;;
9597;SDS011;4837;50.890;4.724;2022-12-24T08:01:24;28.77;;;5.67;;
9597;SDS011;4837;50.890;4.724;2022-12-24T08:03:50;24.57;;;5.77;;
9597;SDS011;4837;50.890;4.724;2022-12-24T08:06:18;29.70;;;5.80;;
9597;SDS011;4837;50.890;4.724;2022-12-24T08:08:44;19.33;;;5.27;;
9597;SDS011;4837;50.890;4.724;2022-12-24T08:11:11;35.63;;;6.13;;
9597;SDS011;4837;50.890;4.724;2022-12-24T08:13:37;24.23;;;5.40;;
9597;SDS011;4837;50.890;4.724;2022-12-24T08:16:03;27.30;;;5.73;;
9597;SDS011;4837;50.890;4.724;2022-12-24T08:18:29;25.07;;;4.80;;
9597;SDS011;4837;50.890;4.724;2022-12-24T08:20:56;29.17;;;6.07;;
9597;SDS011;4837;50.890;4.724;2022-12-24T08:23:22;38.03;;;5.83;;
9597;SDS011;4837;50.890;4.724;2022-12-24T08:25:48;27.63;;;5.60;;
9597;SDS011;4837;50.890;4.724;2022-12-24T08:28:15;25.47;;;5.27;;
9597;SDS011;4837;50.890;4.724;2022-12-24T08:30:42;23.87;;;5.47;;
9597;SDS011;4837;50.890;4.724;2022-12-24T08:33:08;25.47;;;5.17;;
9597;SDS011;4837;50.890;4.724;2022-12-24T08:35:34;28.23;;;5.77;;
9597;SDS011;4837;50.890;4.724;2022-12-24T08:38:00;21.43;;;4.93;;
9597;SDS011;4837;50.890;4.724;2022-12-24T08:40:26;22.03;;;5.00;;
9597;SDS011;4837;50.890;4.724;2022-12-24T08:42:53;22.43;;;5.77;;
9597;SDS011;4837;50.890;4.724;2022-12-24T08:45:19;23.63;;;5.10;;
9597;SDS011;4837;50.890;4.724;2022-12-24T08:47:45;33.47;;;6.43;;
9597;SDS011;4837;50.890;4.724;2022-12-24T08:50:11;17.23;;;5.47;;
9597;SDS011;4837;50.890;4.724;2022-12-24T08:52:38;31.30;;;6.07;;
9597;SDS011;4837;50.890;4.724;2022-12-24T08:55:04;28.80;;;5.87;;
9597;SDS011;4837;50.890;4.724;2022-12-24T08:57:30;23.23;;;5.23;;
9597;SDS011;4837;50.890;4.724;2022-12-24T08:59:59;27.63;;;5.80;;
9597;SDS011;4837;50.890;4.724;2022-12-24T09:02:25;30.67;;;6.10;;
9597;SDS011;4837;50.890;4.724;2022-12-24T09:04:51;23.20;;;5.10;;
9597;SDS011;4837;50.890;4.724;2022-12-24T09:07:17;23.10;;;5.43;;
9597;SDS011;4837;50.890;4.724;2022-12-24T09:09:44;31.23;;;6.90;;
9597;SDS011;4837;50.890;4.724;2022-12-24T09:12:10;25.07;;;5.47;;
9597;SDS011;4837;50.890;4.724;2022-12-24T09:14:36;23.10;;;5.30;;
9597;SDS011;4837;50.890;4.724;2022-12-24T09:17:02;32.07;;;5.30;;
9597;SDS011;4837;50.890;4.724;2022-12-24T09:19:28;24.07;;;5.77;;
9597;SDS011;4837;50.890;4.724;2022-12-24T09:21:54;24.37;;;5.20;;
9597;SDS011;4837;50.890;4.724;2022-12-24T09:24:21;21.97;;;5.57;;
9597;SDS011;4837;50.890;4.724;2022-12-24T09:26:47;28.17;;;5.07;;
9597;SDS011;4837;50.890;4.724;2022-12-24T09:29:13;22.67;;;5.27;;
9597;SDS011;4837;50.890;4.724;2022-12-24T09:31:40;29.77;;;5.57;;
9597;SDS011;4837;50.890;4.724;2022-12-24T09:34:06;27.17;;;5.67;;
9597;SDS011;4837;50.890;4.724;2022-12-24T09:36:32;27.60;;;5.47;;
9597;SDS011;4837;50.890;4.724;2022-12-24T09:38:59;23.58;;;5.40;;
9597;SDS011;4837;50.890;4.724;2022-12-24T09:43:53;29.73;;;6.20;;
9597;SDS011;4837;50.890;4.724;2022-12-24T09:46:29;23.57;;;5.63;;
9597;SDS011;4837;50.890;4.724;2022-12-24T09:48:57;21.97;;;5.33;;
9597;SDS011;4837;50.890;4.724;2022-12-24T09:54:00;27.33;;;5.30;;
9597;SDS011;4837;50.890;4.724;2022-12-24T09:56:38;22.67;;;5.20;;
9597;SDS011;4837;50.890;4.724;2022-12-24T09:59:06;22.73;;;5.73;;
9597;SDS011;4837;50.890;4.724;2022-12-24T10:01:34;29.23;;;6.17;;
9597;SDS011;4837;50.890;4.724;2022-12-24T10:04:02;25.03;;;5.27;;
9597;SDS011;4837;50.890;4.724;2022-12-24T10:06:33;31.07;;;6.27;;
9597;SDS011;4837;50.890;4.724;2022-12-24T10:14:19;25.93;;;5.40;;
9597;SDS011;4837;50.890;4.724;2022-12-24T10:19:32;22.80;;;5.63;;
9597;SDS011;4837;50.890;4.724;2022-12-24T10:22:25;22.63;;;5.63;;
9597;SDS011;4837;50.890;4.724;2022-12-24T10:24:51;25.30;;;5.20;;
9597;SDS011;4837;50.890;4.724;2022-12-24T10:27:19;23.13;;;4.90;;
9597;SDS011;4837;50.890;4.724;2022-12-24T10:30:11;26.37;;;5.03;;
9597;SDS011;4837;50.890;4.724;2022-12-24T10:32:37;22.15;;;5.68;;
9597;SDS011;4837;50.890;4.724;2022-12-24T10:37:38;24.57;;;5.13;;
9597;SDS011;4837;50.890;4.724;2022-12-24T10:40:05;23.20;;;5.87;;
9597;SDS011;4837;50.890;4.724;2022-12-24T10:42:39;23.80;;;4.97;;
9597;SDS011;4837;50.890;4.724;2022-12-24T10:45:19;21.05;;;5.18;;
9597;SDS011;4837;50.890;4.724;2022-12-24T10:47:47;25.87;;;4.80;;
9597;SDS011;4837;50.890;4.724;2022-12-24T10:50:17;25.03;;;5.43;;
9597;SDS011;4837;50.890;4.724;2022-12-24T10:52:44;27.80;;;5.75;;
9597;SDS011;4837;50.890;4.724;2022-12-24T10:55:20;24.63;;;5.27;;
9597;SDS011;4837;50.890;4.724;2022-12-24T10:57:55;23.43;;;5.30;;
9597;SDS011;4837;50.890;4.724;2022-12-24T11:00:23;19.73;;;4.47;;
9597;SDS011;4837;50.890;4.724;2022-12-24T11:03:04;26.30;;;4.67;;
9597;SDS011;4837;50.890;4.724;2022-12-24T11:05:31;23.10;;;5.70;;
9597;SDS011;4837;50.890;4.724;2022-12-24T11:08:19;23.42;;;4.53;;
9597;SDS011;4837;50.890;4.724;2022-12-24T11:10:55;23.63;;;5.90;;
9597;SDS011;4837;50.890;4.724;2022-12-24T11:13:23;24.87;;;4.73;;
9597;SDS011;4837;50.890;4.724;2022-12-24T11:15:58;19.47;;;4.50;;
9597;SDS011;4837;50.890;4.724;2022-12-24T11:18:24;25.03;;;5.27;;
9597;SDS011;4837;50.890;4.724;2022-12-24T11:20:52;17.97;;;4.70;;
9597;SDS011;4837;50.890;4.724;2022-12-24T11:23:18;21.80;;;4.70;;
9597;SDS011;4837;50.890;4.724;2022-12-24T11:25:49;22.87;;;4.90;;
9597;SDS011;4837;50.890;4.724;2022-12-24T11:28:20;20.60;;;4.73;;
9597;SDS011;4837;50.890;4.724;2022-12-24T11:33:51;20.90;;;4.90;;
9597;SDS011;4837;50.890;4.724;2022-12-24T11:36:21;26.42;;;5.25;;
9597;SDS011;4837;50.890;4.724;2022-12-24T11:38:57;26.33;;;5.88;;
9597;SDS011;4837;50.890;4.724;2022-12-24T11:41:23;23.63;;;5.13;;
9597;SDS011;4837;50.890;4.724;2022-12-24T11:43:51;23.53;;;5.27;;
9597;SDS011;4837;50.890;4.724;2022-12-24T11:51:31;21.83;;;5.43;;
9597;SDS011;4837;50.890;4.724;2022-12-24T11:54:00;26.33;;;5.07;;
9597;SDS011;4837;50.890;4.724;2022-12-24T11:59:01;25.40;;;4.83;;
9597;SDS011;4837;50.890;4.724;2022-12-24T12:01:34;20.83;;;4.70;;
9597;SDS011;4837;50.890;4.724;2022-12-24T12:04:04;21.23;;;5.00;;
9597;SDS011;4837;50.890;4.724;2022-12-24T12:09:02;20.80;;;5.33;;
9597;SDS011;4837;50.890;4.724;2022-12-24T12:11:30;19.87;;;4.67;;
9597;SDS011;4837;50.890;4.724;2022-12-24T12:13:57;21.70;;;5.33;;
9597;SDS011;4837;50.890;4.724;2022-12-24T12:16:29;19.58;;;4.93;;
9597;SDS011;4837;50.890;4.724;2022-12-24T12:19:17;23.23;;;5.20;;
9597;SDS011;4837;50.890;4.724;2022-12-24T12:21:46;21.40;;;4.90;;
9597;SDS011;4837;50.890;4.724;2022-12-24T12:24:21;22.80;;;5.28;;
9597;SDS011;4837;50.890;4.724;2022-12-24T12:27:00;25.00;;;5.55;;
9597;SDS011;4837;50.890;4.724;2022-12-24T12:29:32;20.00;;;4.97;;
9597;SDS011;4837;50.890;4.724;2022-12-24T12:32:05;37.58;;;6.45;;
9597;SDS011;4837;50.890;4.724;2022-12-24T12:34:39;21.70;;;4.82;;
9597;SDS011;4837;50.890;4.724;2022-12-24T12:37:16;26.63;;;4.82;;
9597;SDS011;4837;50.890;4.724;2022-12-24T12:39:43;19.85;;;4.45;;
9597;SDS011;4837;50.890;4.724;2022-12-24T12:42:31;22.85;;;5.00;;
9597;SDS011;4837;50.890;4.724;2022-12-24T12:52:41;19.73;;;4.80;;
9597;SDS011;4837;50.890;4.724;2022-12-24T12:55:21;19.93;;;4.10;;
9597;SDS011;4837;50.890;4.724;2022-12-24T12:57:49;17.00;;;4.25;;
9597;SDS011;4837;50.890;4.724;2022-12-24T13:00:16;25.73;;;4.85;;
9597;SDS011;4837;50.890;4.724;2022-12-24T13:08:31;18.38;;;4.63;;
9597;SDS011;4837;50.890;4.724;2022-12-24T13:13:39;22.20;;;4.77;;
9597;SDS011;4837;50.890;4.724;2022-12-24T13:21:16;14.18;;;3.97;;
9597;SDS011;4837;50.890;4.724;2022-12-24T13:23:48;25.58;;;5.10;;
9597;SDS011;4837;50.890;4.724;2022-12-24T13:26:14;17.98;;;4.15;;
9597;SDS011;4837;50.890;4.724;2022-12-24T13:28:41;22.17;;;4.03;;
9597;SDS011;4837;50.890;4.724;2022-12-24T13:36:03;17.15;;;4.88;;
9597;SDS011;4837;50.890;4.724;2022-12-24T13:38:31;20.73;;;4.90;;
9597;SDS011;4837;50.890;4.724;2022-12-24T13:52:20;20.20;;;4.18;;
9597;SDS011;4837;50.890;4.724;2022-12-24T14:00:00;19.98;;;4.72;;
9597;SDS011;4837;50.890;4.724;2022-12-24T14:02:26;20.17;;;4.75;;
9597;SDS011;4837;50.890;4.724;2022-12-24T14:04:53;24.88;;;5.70;;
9597;SDS011;4837;50.890;4.724;2022-12-24T14:07:24;17.02;;;4.07;;
9597;SDS011;4837;50.890;4.724;2022-12-24T14:09:50;22.75;;;4.30;;
9597;SDS011;4837;50.890;4.724;2022-12-24T14:17:47;21.67;;;5.10;;
9597;SDS011;4837;50.890;4.724;2022-12-24T14:20:13;21.88;;;5.43;;
9597;SDS011;4837;50.890;4.724;2022-12-24T14:22:42;20.23;;;4.47;;
9597;SDS011;4837;50.890;4.724;2022-12-24T14:25:14;18.50;;;4.35;;
9597;SDS011;4837;50.890;4.724;2022-12-24T14:30:12;20.43;;;4.77;;
9597;SDS011;4837;50.890;4.724;2022-12-24T14:32:40;22.37;;;4.73;;
9597;SDS011;4837;50.890;4.724;2022-12-24T14:37:36;19.23;;;5.13;;
9597;SDS011;4837;50.890;4.724;2022-12-24T14:40:03;18.23;;;4.30;;
9597;SDS011;4837;50.890;4.724;2022-12-24T14:47:27;17.48;;;4.50;;
9597;SDS011;4837;50.890;4.724;2022-12-24T14:53:15;19.83;;;4.47;;
9597;SDS011;4837;50.890;4.724;2022-12-24T14:55:40;15.68;;;4.88;;
9597;SDS011;4837;50.890;4.724;2022-12-24T14:58:15;23.70;;;4.88;;
9597;SDS011;4837;50.890;4.724;2022-12-24T15:00:43;21.95;;;4.72;;
9597;SDS011;4837;50.890;4.724;2022-12-24T15:03:13;18.42;;;4.63;;
9597;SDS011;4837;50.890;4.724;2022-12-24T15:05:40;26.15;;;5.63;;
9597;SDS011;4837;50.890;4.724;2022-12-24T15:08:16;21.92;;;5.60;;
9597;SDS011;4837;50.890;4.724;2022-12-24T15:10:44;22.58;;;5.00;;
9597;SDS011;4837;50.890;4.724;2022-12-24T15:13:54;23.23;;;5.53;;
9597;SDS011;4837;50.890;4.724;2022-12-24T15:16:01;25.33;;;5.47;;
9597;SDS011;4837;50.890;4.724;2022-12-24T15:18:28;21.57;;;5.70;;
9597;SDS011;4837;50.890;4.724;2022-12-24T15:20:56;19.10;;;5.35;;
9597;SDS011;4837;50.890;4.724;2022-12-24T15:23:34;21.80;;;6.03;;
9597;SDS011;4837;50.890;4.724;2022-12-24T15:26:15;18.30;;;6.18;;
9597;SDS011;4837;50.890;4.724;2022-12-24T15:28:43;27.07;;;6.13;;
9597;SDS011;4837;50.890;4.724;2022-12-24T15:31:13;22.23;;;7.27;;
9597;SDS011;4837;50.890;4.724;2022-12-24T15:33:42;23.65;;;7.35;;
9597;SDS011;4837;50.890;4.724;2022-12-24T15:36:16;22.38;;;5.70;;
9597;SDS011;4837;50.890;4.724;2022-12-24T15:38:49;23.10;;;6.27;;
9597;SDS011;4837;50.890;4.724;2022-12-24T15:43:46;18.77;;;4.87;;
9597;SDS011;4837;50.890;4.724;2022-12-24T15:46:18;24.17;;;5.70;;
9597;SDS011;4837;50.890;4.724;2022-12-24T15:48:45;19.57;;;5.40;;
9597;SDS011;4837;50.890;4.724;2022-12-24T15:51:11;17.25;;;5.40;;
9597;SDS011;4837;50.890;4.724;2022-12-24T15:53:40;22.38;;;5.78;;
9597;SDS011;4837;50.890;4.724;2022-12-24T15:56:11;15.97;;;5.33;;
9597;SDS011;4837;50.890;4.724;2022-12-24T16:03:30;19.57;;;5.97;;
9597;SDS011;4837;50.890;4.724;2022-12-24T16:06:00;24.70;;;6.25;;
9597;SDS011;4837;50.890;4.724;2022-12-24T16:08:33;23.37;;;6.00;;
9597;SDS011;4837;50.890;4.724;2022-12-24T16:11:16;27.37;;;7.33;;
9597;SDS011;4837;50.890;4.724;2022-12-24T16:16:13;25.25;;;8.77;;
9597;SDS011;4837;50.890;4.724;2022-12-24T16:18:46;35.85;;;12.90;;
9597;SDS011;4837;50.890;4.724;2022-12-24T16:23:56;28.00;;;7.53;;
9597;SDS011;4837;50.890;4.724;2022-12-24T16:26:22;24.52;;;6.35;;
9597;SDS011;4837;50.890;4.724;2022-12-24T16:28:48;24.88;;;7.13;;
9597;SDS011;4837;50.890;4.724;2022-12-24T16:31:19;24.67;;;6.70;;
9597;SDS011;4837;50.890;4.724;2022-12-24T16:33:52;23.87;;;6.93;;
9597;SDS011;4837;50.890;4.724;2022-12-24T16:36:19;29.73;;;6.50;;
9597;SDS011;4837;50.890;4.724;2022-12-24T16:38:46;27.83;;;6.82;;
9597;SDS011;4837;50.890;4.724;2022-12-24T16:41:30;24.43;;;6.93;;
9597;SDS011;4837;50.890;4.724;2022-12-24T16:44:16;24.47;;;7.57;;
9597;SDS011;4837;50.890;4.724;2022-12-24T16:46:42;29.17;;;7.60;;
9597;SDS011;4837;50.890;4.724;2022-12-24T16:49:15;27.40;;;7.67;;
9597;SDS011;4837;50.890;4.724;2022-12-24T16:51:42;32.27;;;7.60;;
9597;SDS011;4837;50.890;4.724;2022-12-24T16:54:10;32.80;;;8.87;;
9597;SDS011;4837;50.890;4.724;2022-12-24T16:56:37;29.47;;;8.23;;
9597;SDS011;4837;50.890;4.724;2022-12-24T16:59:03;25.07;;;8.97;;
9597;SDS011;4837;50.890;4.724;2022-12-24T17:01:29;31.33;;;8.70;;
9597;SDS011;4837;50.890;4.724;2022-12-24T17:03:55;27.67;;;8.90;;
9597;SDS011;4837;50.890;4.724;2022-12-24T17:06:21;27.13;;;8.98;;
9597;SDS011;4837;50.890;4.724;2022-12-24T17:08:48;28.77;;;8.13;;
9597;SDS011;4837;50.890;4.724;2022-12-24T17:11:14;26.77;;;8.03;;
9597;SDS011;4837;50.890;4.724;2022-12-24T17:13:40;22.53;;;7.60;;
9597;SDS011;4837;50.890;4.724;2022-12-24T17:16:06;28.23;;;8.00;;
9597;SDS011;4837;50.890;4.724;2022-12-24T17:18:32;26.20;;;7.50;;
9597;SDS011;4837;50.890;4.724;2022-12-24T17:20:59;26.73;;;8.93;;